createdAt,value
2022-12-28T00:04:51.363Z,63.54
2022-12-28T00:15:19.004Z,63.71
2022-12-28T00:25:47.202Z,63.93
2022-12-28T00:36:16.413Z,64.48
2022-12-28T00:46:44.514Z,64.83
2022-12-28T00:57:11.128Z,64.96
2022-12-28T01:07:39.240Z,65.35
2022-12-28T01:18:07.663Z,65.45
2022-12-28T01:28:37.129Z,65.39
2022-12-28T01:39:07.364Z,64.98
2022-12-28T01:49:38.330Z,64.71
2022-12-28T02:00:12.207Z,63.93
2022-12-28T02:10:45.783Z,63.96
2022-12-28T02:21:30.816Z,64.10
2022-12-28T02:32:07.637Z,63.18
2022-12-28T02:42:36.172Z,63.24
2022-12-28T02:53:25.839Z,63.97
2022-12-28T03:04:05.231Z,63.87
2022-12-28T03:14:39.012Z,63.45
2022-12-28T03:25:29.122Z,62.81
2022-12-28T03:36:04.786Z,62.42
2022-12-28T03:46:38.998Z,62.10
2022-12-28T03:57:06.654Z,62.15
2022-12-28T04:07:34.376Z,62.98
2022-12-28T04:18:04.238Z,63.19
2022-12-28T04:28:33.460Z,63.55
2022-12-28T04:39:02.729Z,63.98
2022-12-28T04:49:28.717Z,64.37
2022-12-28T04:59:56.240Z,64.10
2022-12-28T05:10:24.058Z,64.45
2022-12-28T05:20:52.159Z,64.78
2022-12-28T05:31:23.171Z,64.89
2022-12-28T05:41:51.405Z,65.00
2022-12-28T05:52:19.086Z,64.91
2022-12-28T06:02:47.415Z,65.22
2022-12-28T06:13:15.698Z,65.55
2022-12-28T06:23:45.072Z,65.96
2022-12-28T06:34:12.760Z,66.33
2022-12-28T06:44:44.532Z,65.74
2022-12-28T06:55:12.888Z,65.44
2022-12-28T07:05:40.558Z,64.96
2022-12-28T07:16:13.027Z,64.79
2022-12-28T07:26:41.091Z,64.65
2022-12-28T07:37:08.590Z,64.45
2022-12-28T07:47:36.049Z,64.37
2022-12-28T07:58:03.846Z,63.75
2022-12-28T08:08:32.258Z,63.75
2022-12-28T08:18:59.747Z,64.06
2022-12-28T08:29:28.300Z,64.66
2022-12-28T08:39:56.465Z,65.40
2022-12-28T08:50:31.174Z,65.86
2022-12-28T09:01:05.702Z,66.16
2022-12-28T09:11:34.740Z,66.05
2022-12-28T09:22:02.431Z,65.71
2022-12-28T09:32:30.618Z,65.30
2022-12-28T09:42:59.689Z,65.16
2022-12-28T09:53:34.595Z,65.18
2022-12-28T10:04:03.791Z,65.13
2022-12-28T10:14:34.552Z,65.21
2022-12-28T10:25:02.142Z,65.12
2022-12-28T10:35:34.523Z,64.73
2022-12-28T10:46:04.167Z,64.46
2022-12-28T10:56:33.415Z,64.23
2022-12-28T11:07:03.111Z,64.12
2022-12-28T11:17:37.788Z,64.05
2022-12-28T11:28:13.676Z,63.41
2022-12-28T11:38:43.054Z,62.97
2022-12-28T11:59:43.166Z,61.07
2022-12-28T12:10:28.100Z,60.91
2022-12-28T12:21:03.283Z,60.25
2022-12-28T12:31:37.059Z,60.03
2022-12-28T12:42:18.592Z,59.94
2022-12-28T12:53:01.333Z,60.37
2022-12-28T13:03:40.091Z,60.91
2022-12-28T13:14:19.064Z,61.40
2022-12-28T13:24:47.961Z,61.35
2022-12-28T13:35:23.243Z,60.90
2022-12-28T13:45:56.530Z,60.67
2022-12-28T13:56:26.115Z,60.57
2022-12-28T14:06:53.891Z,60.68
2022-12-28T14:17:23.756Z,60.63
2022-12-28T14:27:58.097Z,60.77
2022-12-28T14:38:29.011Z,60.90
2022-12-28T14:48:56.657Z,61.00
2022-12-28T14:59:28.628Z,61.21
2022-12-28T15:09:56.879Z,61.74
2022-12-28T15:20:24.786Z,61.12
2022-12-28T15:30:52.391Z,60.57
2022-12-28T15:41:38.578Z,60.64
2022-12-28T15:52:06.537Z,60.97
2022-12-28T16:02:34.411Z,61.34
2022-12-28T16:13:02.193Z,61.58
2022-12-28T16:23:33.258Z,61.88
2022-12-28T16:34:02.410Z,62.04
2022-12-28T16:44:30.491Z,62.36
2022-12-28T16:54:58.124Z,62.49
2022-12-28T17:05:25.728Z,62.58
2022-12-28T17:15:53.407Z,62.65
2022-12-28T17:26:21.000Z,62.64
2022-12-28T17:36:48.731Z,62.58
2022-12-28T17:47:16.348Z,62.65
2022-12-28T17:57:44.004Z,62.76
2022-12-28T18:08:11.671Z,62.58
2022-12-28T18:18:39.535Z,62.70
2022-12-28T18:29:07.334Z,62.67
2022-12-28T18:39:35.671Z,62.31
2022-12-28T18:50:03.422Z,62.25
2022-12-28T19:00:31.019Z,62.28
2022-12-28T19:10:58.644Z,61.93
2022-12-28T19:21:30.941Z,61.79
2022-12-28T19:31:58.751Z,61.53
2022-12-28T19:42:26.358Z,61.37
2022-12-28T19:52:54.033Z,61.34
2022-12-28T20:03:21.968Z,61.15
2022-12-28T20:13:52.597Z,60.94
2022-12-28T20:24:21.886Z,60.87
2022-12-28T20:34:49.500Z,60.49
2022-12-28T20:45:17.205Z,60.39
2022-12-28T20:55:44.744Z,59.96
2022-12-28T21:06:12.783Z,59.93
2022-12-28T21:16:40.464Z,59.77
2022-12-28T21:27:08.230Z,59.86
2022-12-28T21:37:35.771Z,59.71
2022-12-28T21:48:03.465Z,59.60
2022-12-28T21:58:30.954Z,59.61
2022-12-28T22:09:16.255Z,59.45
2022-12-28T22:19:43.787Z,59.13
2022-12-28T22:30:13.251Z,58.96
2022-12-28T22:40:40.794Z,59.06
2022-12-28T22:51:10.648Z,58.93
2022-12-28T23:01:38.740Z,59.14
2022-12-28T23:12:07.132Z,59.15
2022-12-28T23:22:53.895Z,59.54
2022-12-28T23:33:21.982Z,59.36
2022-12-28T23:43:49.643Z,58.83
2022-12-28T23:54:19.608Z,58.92
